Time;durP1;ratioP1;P1;durP2;ratioP2;P2;SDS_P1;SDS_P2;PMS_P1;PMS_P2;Temp;Humidity;BMP_temperature;BMP_pressure;BME280_temperature;BME280_humidity;BME280_pressure;Samples;Min_cycle;Max_cycle;Signal;HPM_P1;HPM_P2
2023/03/19 00:00:47;;;;;;;22.13;20.13;;;11.30;99.90;;;;;;5026050;28;20057;-71
2023/03/19 00:03:12;;;;;;;22.45;20.42;;;11.30;99.90;;;;;;5025017;28;20132;-71
2023/03/19 00:05:38;;;;;;;23.00;21.00;;;11.20;99.90;;;;;;5022771;28;20084;-72
2023/03/19 00:08:04;;;;;;;23.50;21.38;;;11.20;99.90;;;;;;5029722;28;20041;-71
2023/03/19 00:10:30;;;;;;;23.10;21.00;;;11.20;99.90;;;;;;5025881;28;20468;-71
2023/03/19 00:12:55;;;;;;;23.38;21.10;;;11.20;99.90;;;;;;5024547;28;20045;-72
2023/03/19 00:15:21;;;;;;;23.73;21.73;;;11.20;99.90;;;;;;5021256;28;20056;-71
2023/03/19 00:17:47;;;;;;;25.08;22.77;;;11.20;99.90;;;;;;5025067;28;20029;-71
2023/03/19 00:20:13;;;;;;;25.25;23.00;;;11.20;99.90;;;;;;5028245;28;20451;-72
2023/03/19 00:22:39;;;;;;;25.27;23.08;;;11.10;99.90;;;;;;5025690;28;20437;-72
2023/03/19 00:25:06;;;;;;;25.58;23.35;;;11.20;99.90;;;;;;5023854;28;20132;-71
2023/03/19 00:27:32;;;;;;;26.13;23.65;;;11.10;99.90;;;;;;5028404;28;20049;-71
2023/03/19 00:29:58;;;;;;;25.70;23.40;;;11.10;99.90;;;;;;5025712;28;20099;-71
2023/03/19 00:32:24;;;;;;;25.92;23.50;;;11.10;99.90;;;;;;5026741;28;20041;-70
2023/03/19 00:34:50;;;;;;;25.98;23.67;;;11.10;99.90;;;;;;5021202;28;20045;-72
2023/03/19 00:37:16;;;;;;;25.92;23.55;;;11.10;99.90;;;;;;5027972;28;20052;-71
2023/03/19 00:39:42;;;;;;;25.45;23.08;;;11.10;99.90;;;;;;5026082;28;20053;-71
2023/03/19 00:42:08;;;;;;;25.73;23.40;;;11.10;99.90;;;;;;5029628;28;20042;-71
2023/03/19 00:44:33;;;;;;;26.52;24.02;;;11.10;99.90;;;;;;5030642;28;20041;-72
2023/03/19 00:46:59;;;;;;;27.75;25.10;;;11.10;99.90;;;;;;5022857;28;20057;-71
2023/03/19 00:49:25;;;;;;;27.52;24.92;;;11.10;99.90;;;;;;5024930;28;20094;-71
2023/03/19 00:51:50;;;;;;;28.00;25.40;;;11.10;99.90;;;;;;5024246;28;20475;-71
2023/03/19 00:54:16;;;;;;;28.58;25.88;;;11.10;99.90;;;;;;5022178;28;20128;-71
2023/03/19 00:56:42;;;;;;;28.77;25.95;;;11.10;99.90;;;;;;5022060;28;20500;-72
2023/03/19 00:59:08;;;;;;;29.75;26.95;;;11.10;99.90;;;;;;5029380;28;20111;-71
2023/03/19 01:01:33;;;;;;;27.58;25.00;;;11.00;99.90;;;;;;5028814;28;20054;-72
2023/03/19 01:03:59;;;;;;;29.42;26.65;;;11.10;99.90;;;;;;5026195;28;20034;-72
2023/03/19 01:06:25;;;;;;;28.38;25.88;;;11.10;99.90;;;;;;5026107;28;20061;-72
2023/03/19 01:08:50;;;;;;;27.75;25.15;;;11.10;99.90;;;;;;5022852;28;20037;-72
2023/03/19 01:11:17;;;;;;;28.73;26.05;;;11.10;99.90;;;;;;5028324;28;20041;-72
2023/03/19 01:13:43;;;;;;;30.30;27.30;;;11.10;99.90;;;;;;5024175;28;20045;-72
2023/03/19 01:16:09;;;;;;;28.20;25.50;;;11.10;99.90;;;;;;5030448;28;20042;-71
2023/03/19 01:18:35;;;;;;;29.55;26.75;;;11.10;99.90;;;;;;5024220;28;20421;-72
2023/03/19 01:21:00;;;;;;;30.92;28.05;;;11.10;99.90;;;;;;5026823;28;20037;-72
2023/03/19 01:23:26;;;;;;;29.50;26.75;;;11.10;99.90;;;;;;5030432;28;20037;-71
2023/03/19 01:25:52;;;;;;;30.20;27.30;;;11.10;99.90;;;;;;5028178;28;20045;-72
2023/03/19 01:28:18;;;;;;;29.50;26.65;;;11.10;99.90;;;;;;5028595;28;20073;-71
2023/03/19 01:30:43;;;;;;;30.77;27.92;;;11.10;99.90;;;;;;5014370;28;20064;-72
2023/03/19 01:33:09;;;;;;;29.83;27.17;;;11.10;99.90;;;;;;5025663;28;20377;-71
2023/03/19 01:35:35;;;;;;;29.55;26.85;;;11.10;99.90;;;;;;5031471;28;20142;-72
2023/03/19 01:38:00;;;;;;;29.73;26.90;;;11.10;99.90;;;;;;5028616;28;20056;-71
2023/03/19 01:40:26;;;;;;;29.13;26.50;;;11.10;99.90;;;;;;5029920;28;20103;-72
2023/03/19 01:42:56;;;;;;;29.70;26.80;;;11.10;99.90;;;;;;5030512;28;20489;-72
2023/03/19 01:45:33;;;;;;;26.98;24.55;;;11.10;99.90;;;;;;5029009;28;20037;-71
2023/03/19 01:47:59;;;;;;;27.15;24.65;;;11.10;99.90;;;;;;5022943;28;20045;-71
2023/03/19 01:50:33;;;;;;;26.83;24.42;;;11.00;99.90;;;;;;5027083;28;20049;-71
2023/03/19 01:53:00;;;;;;;26.67;24.10;;;11.10;99.90;;;;;;5026525;28;20041;-71
2023/03/19 01:55:26;;;;;;;25.20;22.80;;;11.10;99.90;;;;;;5030148;28;20045;-71
2023/03/19 01:57:52;;;;;;;25.20;22.90;;;11.10;99.90;;;;;;5027814;28;20052;-71
2023/03/19 02:00:18;;;;;;;25.83;23.23;;;11.10;99.90;;;;;;5031827;28;20041;-71
2023/03/19 02:02:47;;;;;;;24.02;21.58;;;11.10;99.90;;;;;;5029474;28;20185;-71
2023/03/19 02:05:21;;;;;;;24.27;21.77;;;11.10;99.90;;;;;;5032404;28;20515;-72
2023/03/19 02:07:47;;;;;;;25.20;22.58;;;11.10;99.90;;;;;;5026294;28;20037;-71
2023/03/19 02:10:15;;;;;;;24.17;21.85;;;11.10;99.90;;;;;;5026534;28;20064;-71
2023/03/19 02:12:41;;;;;;;24.55;22.15;;;11.10;99.90;;;;;;5023169;28;20033;-72
2023/03/19 02:15:08;;;;;;;23.58;21.27;;;11.00;99.90;;;;;;5031249;28;20044;-72
2023/03/19 02:17:33;;;;;;;24.02;21.83;;;11.10;99.90;;;;;;5026122;28;20121;-72
2023/03/19 02:20:24;;;;;;;23.77;21.40;;;11.10;99.90;;;;;;5024701;28;20168;-72
2023/03/19 02:23:00;;;;;;;23.17;21.00;;;11.10;99.90;;;;;;5025928;28;20052;-71
2023/03/19 02:25:49;;;;;;;22.73;20.27;;;11.10;99.90;;;;;;5023095;28;20084;-71
2023/03/19 02:28:17;;;;;;;21.30;19.30;;;11.10;99.90;;;;;;5017649;28;20052;-71
2023/03/19 02:30:44;;;;;;;20.05;18.08;;;11.10;99.90;;;;;;5025206;28;20045;-71
2023/03/19 02:33:16;;;;;;;19.30;17.35;;;11.10;99.90;;;;;;5024427;28;20417;-72
2023/03/19 02:35:45;;;;;;;19.70;16.90;;;11.00;99.90;;;;;;5024806;28;20053;-72
2023/03/19 02:38:12;;;;;;;18.75;16.60;;;11.00;99.90;;;;;;5027947;28;20503;-72
2023/03/19 02:40:51;;;;;;;17.65;15.85;;;11.10;99.90;;;;;;5027500;28;20038;-71
2023/03/19 02:43:17;;;;;;;17.48;15.75;;;11.10;99.90;;;;;;5026566;28;20079;-71
2023/03/19 02:45:42;;;;;;;15.48;13.98;;;11.00;99.90;;;;;;5021734;28;20408;-72
2023/03/19 02:48:08;;;;;;;15.30;13.80;;;11.00;99.90;;;;;;5028489;28;20473;-71
2023/03/19 02:50:33;;;;;;;14.68;13.18;;;11.00;99.90;;;;;;5030087;28;20782;-72
2023/03/19 02:52:59;;;;;;;12.18;10.93;;;11.00;99.90;;;;;;5028023;28;20164;-72
2023/03/19 02:55:25;;;;;;;12.07;10.88;;;10.90;99.90;;;;;;5028777;28;20077;-71
2023/03/19 02:57:50;;;;;;;10.50;9.23;;;10.90;99.90;;;;;;5027774;28;20045;-71
2023/03/19 03:00:17;;;;;;;13.00;8.32;;;10.90;99.90;;;;;;5027000;28;20041;-72
2023/03/19 03:02:43;;;;;;;8.65;7.40;;;10.90;99.90;;;;;;5041413;28;20508;-71
2023/03/19 03:05:09;;;;;;;8.50;7.05;;;10.90;99.90;;;;;;5028970;28;20055;-72
2023/03/19 03:07:35;;;;;;;7.45;6.07;;;10.90;99.90;;;;;;5028337;28;20041;-72
2023/03/19 03:10:01;;;;;;;6.90;6.20;;;10.90;99.90;;;;;;5030703;28;20068;-72
2023/03/19 03:12:26;;;;;;;6.43;5.75;;;10.90;99.90;;;;;;5028470;28;20041;-72
2023/03/19 03:14:52;;;;;;;5.97;5.20;;;10.90;99.90;;;;;;5030244;28;20041;-71
2023/03/19 03:17:18;;;;;;;7.28;4.82;;;10.90;99.90;;;;;;5025173;28;20436;-71
2023/03/19 03:19:43;;;;;;;9.07;5.43;;;10.90;99.90;;;;;;5023067;28;20420;-72
2023/03/19 03:22:09;;;;;;;6.25;5.00;;;10.90;99.90;;;;;;5025789;28;20052;-71
2023/03/19 03:24:35;;;;;;;5.70;5.10;;;10.90;99.90;;;;;;5027021;28;20481;-71
2023/03/19 03:27:01;;;;;;;6.97;5.60;;;10.90;99.90;;;;;;5024836;28;20073;-71
2023/03/19 03:29:27;;;;;;;7.78;5.93;;;10.90;99.90;;;;;;5024480;28;20558;-71
2023/03/19 03:31:52;;;;;;;6.80;5.78;;;10.90;99.90;;;;;;5024629;28;20045;-72
2023/03/19 03:34:18;;;;;;;7.63;5.80;;;10.90;99.90;;;;;;5022088;28;20139;-71
2023/03/19 03:36:45;;;;;;;7.97;6.00;;;10.90;99.90;;;;;;5028833;28;20041;-71
2023/03/19 03:39:12;;;;;;;7.05;5.80;;;10.90;99.90;;;;;;5028788;28;20041;-71
2023/03/19 03:41:38;;;;;;;7.88;5.88;;;10.90;99.90;;;;;;5020011;28;20052;-72
2023/03/19 03:44:04;;;;;;;7.38;4.93;;;10.80;99.90;;;;;;5025326;28;20037;-72
2023/03/19 03:46:30;;;;;;;6.22;5.22;;;10.80;99.90;;;;;;5025935;28;20053;-71
2023/03/19 03:48:56;;;;;;;5.72;5.13;;;10.80;99.90;;;;;;5026983;28;20124;-71
2023/03/19 03:51:21;;;;;;;6.82;5.10;;;10.80;99.90;;;;;;5027186;28;20440;-71
2023/03/19 03:53:47;;;;;;;6.07;5.05;;;10.80;99.90;;;;;;5029514;28;20469;-71
2023/03/19 03:56:13;;;;;;;6.40;5.15;;;10.80;99.90;;;;;;5027319;28;20093;-72
2023/03/19 03:58:39;;;;;;;5.35;4.85;;;10.70;99.90;;;;;;5024213;28;20048;-71
2023/03/19 04:01:06;;;;;;;6.88;5.25;;;10.80;99.90;;;;;;5027664;28;20061;-71
2023/03/19 04:03:32;;;;;;;;;;;10.80;99.90;;;;;;5027713;28;20484;-71
2023/03/19 04:05:57;;;;;;;6.95;5.70;;;10.70;99.90;;;;;;5024490;28;19932;-71
2023/03/19 04:08:23;;;;;;;7.22;5.82;;;10.70;99.90;;;;;;5029801;28;20087;-71
2023/03/19 04:10:49;;;;;;;7.13;5.90;;;10.70;99.90;;;;;;5020412;28;20378;-71
2023/03/19 04:13:15;;;;;;;6.75;5.80;;;10.70;99.90;;;;;;5026175;28;20048;-71
2023/03/19 04:15:42;;;;;;;6.20;5.40;;;10.80;99.90;;;;;;5022059;28;20448;-71
2023/03/19 04:18:08;;;;;;;8.75;5.72;;;10.80;99.90;;;;;;5026860;28;20036;-71
2023/03/19 04:20:34;;;;;;;6.68;5.53;;;10.80;99.90;;;;;;5024030;28;20520;-71
2023/03/19 04:23:00;;;;;;;6.75;5.43;;;10.80;99.90;;;;;;5026680;28;20045;-71
2023/03/19 04:25:26;;;;;;;7.30;5.47;;;10.80;99.90;;;;;;5025958;28;20168;-71
2023/03/19 04:27:52;;;;;;;7.10;6.13;;;10.70;99.90;;;;;;5027104;28;22209;-71
2023/03/19 04:30:17;;;;;;;7.47;5.47;;;10.70;99.90;;;;;;5021025;28;20061;-71
2023/03/19 04:32:43;;;;;;;6.85;5.13;;;10.70;99.90;;;;;;5023092;28;20087;-71
2023/03/19 04:35:09;;;;;;;6.75;5.45;;;10.70;99.90;;;;;;5029896;28;20408;-71
2023/03/19 04:37:38;;;;;;;7.85;5.13;;;10.80;99.90;;;;;;5027647;28;20041;-71
2023/03/19 04:40:04;;;;;;;6.20;5.50;;;10.70;99.90;;;;;;5025050;28;20037;-71
2023/03/19 04:42:30;;;;;;;6.68;5.32;;;10.70;99.90;;;;;;5017922;28;20049;-71
2023/03/19 04:44:56;;;;;;;6.18;5.07;;;10.70;99.90;;;;;;5017861;28;20041;-71
2023/03/19 04:47:22;;;;;;;5.90;4.95;;;10.70;99.90;;;;;;5023505;28;20106;-71
2023/03/19 04:49:47;;;;;;;6.15;4.93;;;10.80;99.90;;;;;;5023468;28;20072;-71
2023/03/19 04:52:13;;;;;;;6.95;5.20;;;10.70;99.90;;;;;;5028901;28;20037;-71
2023/03/19 04:54:39;;;;;;;7.82;5.07;;;10.70;99.90;;;;;;5024437;28;20443;-71
2023/03/19 04:57:04;;;;;;;6.88;5.05;;;10.70;99.90;;;;;;5026698;28;20048;-71
2023/03/19 04:59:30;;;;;;;5.82;5.18;;;10.70;99.90;;;;;;5026571;28;20033;-71
2023/03/19 05:01:56;;;;;;;7.15;4.90;;;10.70;99.90;;;;;;5023002;28;20500;-71
2023/03/19 05:04:22;;;;;;;5.35;4.82;;;10.80;99.90;;;;;;5026460;28;20102;-71
2023/03/19 05:06:49;;;;;;;6.88;5.32;;;10.80;99.90;;;;;;5020977;28;20049;-71
2023/03/19 05:09:14;;;;;;;6.30;5.47;;;10.80;99.90;;;;;;5019908;28;20038;-71
2023/03/19 05:11:40;;;;;;;7.75;5.30;;;10.70;99.90;;;;;;5023753;28;20388;-71
2023/03/19 05:14:06;;;;;;;6.97;5.45;;;10.70;99.90;;;;;;5026443;28;20386;-71
2023/03/19 05:16:31;;;;;;;7.55;5.55;;;10.70;99.90;;;;;;5024871;28;20700;-71
2023/03/19 05:18:57;;;;;;;8.50;5.95;;;10.80;99.90;;;;;;5021116;28;20026;-71
2023/03/19 05:21:23;;;;;;;8.35;6.25;;;10.70;99.90;;;;;;5024865;28;20045;-71
2023/03/19 05:23:51;;;;;;;10.43;6.60;;;10.70;99.90;;;;;;5025796;28;20045;-71
2023/03/19 05:26:17;;;;;;;10.90;6.55;;;10.70;99.90;;;;;;5024713;28;20045;-71
2023/03/19 05:28:43;;;;;;;7.90;6.38;;;10.70;99.90;;;;;;5025696;28;20048;-72
2023/03/19 05:31:09;;;;;;;7.85;6.38;;;10.70;99.90;;;;;;5024877;28;20714;-71
2023/03/19 05:33:38;;;;;;;8.80;6.68;;;10.70;99.90;;;;;;5027593;28;20045;-71
2023/03/19 05:36:04;;;;;;;8.07;6.43;;;10.60;99.90;;;;;;5024596;28;20120;-71
2023/03/19 05:38:29;;;;;;;6.90;6.20;;;10.70;99.90;;;;;;5018385;28;20139;-71
2023/03/19 05:40:55;;;;;;;9.57;6.93;;;10.60;99.90;;;;;;5023647;28;20057;-71
2023/03/19 05:43:21;;;;;;;8.10;6.65;;;10.50;99.90;;;;;;5019421;28;20049;-71
2023/03/19 05:45:51;;;;;;;8.32;6.60;;;10.60;99.90;;;;;;5021658;28;20132;-71
2023/03/19 05:48:17;;;;;;;7.75;6.70;;;10.60;99.90;;;;;;5022741;28;20374;-71
2023/03/19 05:50:43;;;;;;;7.85;7.05;;;10.60;99.90;;;;;;5026386;28;20068;-72
2023/03/19 05:53:08;;;;;;;9.05;7.47;;;10.60;99.90;;;;;;5022141;28;20461;-71
2023/03/19 05:55:34;;;;;;;7.82;6.68;;;10.60;99.90;;;;;;5027678;28;20049;-71
2023/03/19 05:58:00;;;;;;;7.82;7.03;;;10.60;99.90;;;;;;5029654;28;20048;-71
2023/03/19 06:00:26;;;;;;;8.18;7.20;;;10.60;99.90;;;;;;5028652;28;20060;-71
2023/03/19 06:02:53;;;;;;;8.63;6.80;;;10.60;99.90;;;;;;5026559;28;20507;-72
2023/03/19 06:05:19;;;;;;;7.90;6.80;;;10.60;99.90;;;;;;5025505;28;20519;-71
2023/03/19 06:07:45;;;;;;;8.02;6.50;;;10.60;99.90;;;;;;5029386;28;20037;-72
2023/03/19 06:10:12;;;;;;;8.27;7.25;;;10.60;99.90;;;;;;5028438;28;20223;-71
2023/03/19 06:12:40;;;;;;;8.00;7.20;;;10.60;99.90;;;;;;5028362;28;20046;-72
2023/03/19 06:15:07;;;;;;;9.30;7.50;;;10.60;99.90;;;;;;5024070;28;20105;-71
2023/03/19 06:17:34;;;;;;;9.13;7.63;;;10.60;99.90;;;;;;5020109;28;20536;-71
2023/03/19 06:20:00;;;;;;;9.15;8.10;;;10.60;99.90;;;;;;5029834;28;20543;-71
2023/03/19 06:22:26;;;;;;;8.00;7.15;;;10.60;99.90;;;;;;5027771;28;20038;-71
2023/03/19 06:24:51;;;;;;;8.05;6.97;;;10.70;99.90;;;;;;5027419;28;20045;-71
2023/03/19 06:27:17;;;;;;;7.95;6.82;;;10.70;99.90;;;;;;5024901;28;20448;-71
2023/03/19 06:29:43;;;;;;;8.73;7.13;;;10.70;99.90;;;;;;5031566;28;20041;-71
2023/03/19 06:32:09;;;;;;;11.65;7.72;;;10.70;99.90;;;;;;5029021;28;20064;-71
2023/03/19 06:34:35;;;;;;;8.98;8.07;;;10.80;99.90;;;;;;5025812;28;20045;-72
2023/03/19 06:37:01;;;;;;;11.73;9.02;;;10.80;99.90;;;;;;5027420;28;20080;-72
2023/03/19 06:39:26;;;;;;;10.27;9.18;;;10.70;99.90;;;;;;5030319;28;20079;-71
2023/03/19 06:41:52;;;;;;;10.32;8.63;;;10.80;99.90;;;;;;5030262;28;20049;-71
2023/03/19 06:44:18;;;;;;;10.48;8.88;;;10.80;99.90;;;;;;5023023;28;20045;-71
2023/03/19 06:46:45;;;;;;;9.93;8.93;;;10.80;99.90;;;;;;5026411;28;20386;-72
2023/03/19 06:49:10;;;;;;;10.35;9.25;;;10.80;99.90;;;;;;5025676;28;20053;-71
2023/03/19 06:51:36;;;;;;;11.90;10.68;;;10.80;99.90;;;;;;5023402;28;20052;-71
2023/03/19 06:54:02;;;;;;;11.20;10.00;;;10.80;99.90;;;;;;5026733;28;20041;-71
2023/03/19 06:56:28;;;;;;;11.73;10.52;;;10.80;99.90;;;;;;5027410;28;20049;-71
2023/03/19 06:58:54;;;;;;;12.18;10.98;;;10.80;99.90;;;;;;5026518;28;20041;-71
2023/03/19 07:01:20;;;;;;;11.70;10.25;;;10.90;99.90;;;;;;5023886;28;20057;-71
2023/03/19 07:03:46;;;;;;;11.30;9.50;;;10.90;99.90;;;;;;5015593;28;20049;-71
2023/03/19 07:06:12;;;;;;;12.20;10.63;;;10.90;99.90;;;;;;5024606;28;20044;-71
2023/03/19 07:08:37;;;;;;;12.48;10.80;;;10.90;99.90;;;;;;5019189;28;20046;-71
2023/03/19 07:11:05;;;;;;;12.13;10.38;;;10.90;99.90;;;;;;5022488;28;20077;-71
2023/03/19 07:13:31;;;;;;;12.07;10.25;;;11.00;99.90;;;;;;5018434;28;20037;-72
2023/03/19 07:15:58;;;;;;;12.30;10.38;;;11.00;99.90;;;;;;5025650;28;20064;-71
2023/03/19 07:18:24;;;;;;;11.77;10.63;;;11.00;99.90;;;;;;5024835;28;20061;-71
2023/03/19 07:20:51;;;;;;;15.65;11.60;;;11.10;99.90;;;;;;5023872;28;20038;-71
2023/03/19 07:23:17;;;;;;;12.40;10.50;;;11.10;99.90;;;;;;5022890;28;20052;-71
2023/03/19 07:25:43;;;;;;;12.82;11.55;;;11.10;99.90;;;;;;5028899;28;20432;-71
2023/03/19 07:28:09;;;;;;;13.48;11.95;;;11.20;99.90;;;;;;5020101;28;20049;-71
2023/03/19 07:30:37;;;;;;;13.45;12.15;;;11.20;99.90;;;;;;5024845;28;20374;-71
2023/03/19 07:33:03;;;;;;;13.00;11.65;;;11.30;99.90;;;;;;5038114;28;20092;-71
2023/03/19 07:35:28;;;;;;;13.77;12.40;;;11.30;99.90;;;;;;5025368;28;20037;-72
2023/03/19 07:37:54;;;;;;;14.15;12.75;;;11.30;99.90;;;;;;5027058;28;20033;-72
2023/03/19 07:40:20;;;;;;;15.25;13.60;;;11.40;99.90;;;;;;5028132;28;20133;-71
2023/03/19 07:42:46;;;;;;;14.80;13.30;;;11.50;99.90;;;;;;5017430;28;20045;-71
2023/03/19 07:45:11;;;;;;;15.00;13.50;;;11.60;99.90;;;;;;5031216;28;20550;-71
2023/03/19 07:47:38;;;;;;;15.18;13.57;;;11.50;99.90;;;;;;5023777;28;20433;-72
2023/03/19 07:50:05;;;;;;;16.10;14.60;;;11.60;99.90;;;;;;5027081;28;20037;-72
2023/03/19 07:52:30;;;;;;;16.55;14.95;;;11.60;99.90;;;;;;5023682;28;20052;-72
2023/03/19 07:54:56;;;;;;;15.30;13.73;;;11.60;99.90;;;;;;5023825;28;20045;-71
2023/03/19 07:57:24;;;;;;;18.55;16.13;;;11.60;99.90;;;;;;5026007;28;20045;-71
2023/03/19 07:59:49;;;;;;;;;;;11.70;99.90;;;;;;5028046;28;20053;-72
2023/03/19 08:02:15;;;;;;;18.17;16.35;;;11.60;99.90;;;;;;5026566;28;19992;-71
2023/03/19 08:04:41;;;;;;;18.92;17.02;;;11.60;99.90;;;;;;5019752;28;20038;-71
2023/03/19 08:07:09;;;;;;;18.85;16.92;;;11.70;99.90;;;;;;5024113;28;20366;-70
2023/03/19 08:09:36;;;;;;;20.33;17.40;;;11.70;99.90;;;;;;5018938;28;20061;-70
2023/03/19 08:12:02;;;;;;;19.93;17.87;;;11.70;99.90;;;;;;5025264;28;20094;-70
2023/03/19 08:14:27;;;;;;;19.83;17.77;;;11.70;99.90;;;;;;5028435;28;20333;-71
2023/03/19 08:16:53;;;;;;;20.15;18.02;;;11.70;99.90;;;;;;5025780;28;20037;-69
2023/03/19 08:19:19;;;;;;;18.75;16.85;;;11.80;99.90;;;;;;5023126;28;20046;-69
2023/03/19 08:21:44;;;;;;;18.98;17.02;;;11.80;99.90;;;;;;5022227;28;20037;-71
2023/03/19 08:24:10;;;;;;;19.67;17.67;;;11.80;99.90;;;;;;5024013;28;20049;-70
2023/03/19 08:26:36;;;;;;;18.73;16.85;;;11.80;99.90;;;;;;5025621;28;20412;-69
2023/03/19 08:29:03;;;;;;;17.70;15.85;;;11.90;99.90;;;;;;5019696;28;20070;-70
2023/03/19 08:31:29;;;;;;;17.58;15.88;;;11.90;99.90;;;;;;5020176;28;20490;-71
2023/03/19 08:33:55;;;;;;;17.70;16.00;;;12.00;99.90;;;;;;5023041;28;20417;-70
2023/03/19 08:36:21;;;;;;;17.20;15.48;;;12.00;99.90;;;;;;5017717;28;20046;-70
2023/03/19 08:38:46;;;;;;;17.98;15.63;;;12.00;99.90;;;;;;5015194;28;20053;-70
2023/03/19 08:41:12;;;;;;;17.77;15.98;;;12.00;99.90;;;;;;5022597;28;20049;-69
2023/03/19 08:43:38;;;;;;;17.05;15.35;;;12.10;99.90;;;;;;5026122;28;20033;-68
2023/03/19 08:46:04;;;;;;;16.75;15.15;;;12.10;99.90;;;;;;5027378;28;20087;-70
2023/03/19 08:48:31;;;;;;;16.92;15.20;;;12.10;99.90;;;;;;5024022;28;20150;-70
2023/03/19 08:50:59;;;;;;;15.70;14.13;;;12.10;99.90;;;;;;5023037;28;20552;-67
2023/03/19 08:53:25;;;;;;;14.38;12.85;;;12.00;99.90;;;;;;5026823;28;20121;-69
2023/03/19 08:55:52;;;;;;;13.93;12.52;;;12.10;99.90;;;;;;5018278;28;20548;-69
2023/03/19 08:58:18;;;;;;;;;;;12.10;99.90;;;;;;5021370;28;20100;-69
2023/03/19 09:00:44;;;;;;;13.65;12.25;;;12.10;99.90;;;;;;5018266;28;19921;-68
2023/03/19 09:03:09;;;;;;;14.13;12.57;;;12.10;99.90;;;;;;5028414;28;20461;-69
2023/03/19 09:05:35;;;;;;;14.30;12.80;;;12.20;99.90;;;;;;5018424;28;20056;-69
2023/03/19 09:08:01;;;;;;;14.18;12.77;;;12.20;99.90;;;;;;5022075;28;20050;-69
2023/03/19 09:10:26;;;;;;;14.50;12.85;;;12.20;99.90;;;;;;5023538;28;20046;-69
2023/03/19 09:12:52;;;;;;;14.43;12.98;;;12.30;99.90;;;;;;5026718;28;20120;-69
2023/03/19 09:15:18;;;;;;;14.55;13.15;;;12.40;99.90;;;;;;5019563;28;20133;-69
2023/03/19 09:17:43;;;;;;;14.50;13.00;;;12.40;99.90;;;;;;5026655;28;20060;-69
2023/03/19 09:20:09;;;;;;;13.43;12.05;;;12.50;99.90;;;;;;5027896;28;20103;-69
2023/03/19 09:22:35;;;;;;;13.85;12.55;;;12.50;99.90;;;;;;5028517;28;20733;-69
2023/03/19 09:25:01;;;;;;;14.15;12.75;;;12.60;99.90;;;;;;5019257;28;20088;-69
2023/03/19 09:27:27;;;;;;;13.75;12.30;;;12.60;99.90;;;;;;5019065;28;20420;-69
2023/03/19 09:29:53;;;;;;;13.93;12.50;;;12.60;99.90;;;;;;5019356;28;20045;-69
2023/03/19 09:32:19;;;;;;;14.32;12.82;;;12.50;99.90;;;;;;5025586;28;20046;-69
2023/03/19 09:34:45;;;;;;;14.68;13.38;;;12.50;99.90;;;;;;5027784;28;20034;-69
2023/03/19 09:37:11;;;;;;;15.20;13.80;;;12.50;99.90;;;;;;5021775;28;20435;-69
2023/03/19 09:39:37;;;;;;;15.07;13.52;;;12.40;99.90;;;;;;5029873;28;20053;-69
2023/03/19 09:42:05;;;;;;;15.27;13.77;;;12.50;99.90;;;;;;5030675;28;20045;-69
2023/03/19 09:44:42;;;;;;;14.50;12.93;;;12.40;99.90;;;;;;5032524;28;20038;-69
2023/03/19 09:47:32;;;;;;;14.73;13.17;;;12.40;99.90;;;;;;5028496;28;20374;-69
2023/03/19 09:50:01;;;;;;;14.35;12.85;;;12.40;99.90;;;;;;5029778;28;20825;-69
2023/03/19 09:53:02;;;;;;;14.00;12.50;;;12.40;99.90;;;;;;5030648;28;20045;-69
2023/03/19 09:55:36;;;;;;;13.85;12.45;;;12.40;99.90;;;;;;5022634;28;20862;-69
2023/03/19 09:58:12;;;;;;;13.82;12.43;;;12.40;99.90;;;;;;5027571;28;20565;-69
2023/03/19 10:00:39;;;;;;;13.57;12.25;;;12.50;99.90;;;;;;5029485;28;20183;-69
2023/03/19 10:03:35;;;;;;;14.02;12.52;;;12.40;99.90;;;;;;5031203;28;20041;-69
2023/03/19 10:06:22;;;;;;;13.60;12.18;;;12.50;99.90;;;;;;5032094;28;20892;-69
2023/03/19 10:09:10;;;;;;;12.75;11.45;;;12.50;99.90;;;;;;5017905;28;20064;-70
2023/03/19 10:12:04;;;;;;;12.90;11.57;;;12.60;99.90;;;;;;5028020;28;20049;-69
2023/03/19 10:15:07;;;;;;;11.63;10.43;;;12.60;99.90;;;;;;5026094;28;20130;-69
2023/03/19 10:17:40;;;;;;;11.90;10.70;;;12.70;99.90;;;;;;5024874;28;20056;-69
2023/03/19 10:20:13;;;;;;;12.07;10.88;;;12.70;99.90;;;;;;5031459;28;20049;-69
2023/03/19 10:23:03;;;;;;;12.00;10.77;;;12.80;99.90;;;;;;5023157;28;20096;-69
2023/03/19 10:25:32;;;;;;;12.40;11.20;;;12.80;99.90;;;;;;4977148;28;20052;-70
2023/03/19 10:28:17;;;;;;;13.25;11.95;;;12.80;99.90;;;;;;5019072;28;20054;-70
2023/03/19 10:30:49;;;;;;;15.07;13.48;;;12.80;99.90;;;;;;5022982;28;20037;-69
2023/03/19 10:33:26;;;;;;;13.68;12.38;;;12.80;99.90;;;;;;5030614;28;20038;-69
2023/03/19 10:36:07;;;;;;;12.48;11.23;;;12.70;99.90;;;;;;5025404;28;20177;-70
2023/03/19 10:38:39;;;;;;;12.82;11.48;;;12.80;99.90;;;;;;5025988;28;20106;-71
2023/03/19 10:41:28;;;;;;;11.50;10.35;;;12.80;99.90;;;;;;5026654;28;20496;-70
2023/03/19 10:43:59;;;;;;;12.20;10.90;;;12.90;99.90;;;;;;5022311;28;20046;-69
2023/03/19 10:46:24;;;;;;;11.20;10.00;;;12.90;99.90;;;;;;5027547;28;20049;-70
2023/03/19 10:48:50;;;;;;;11.50;10.30;;;13.00;99.90;;;;;;5029636;28;20163;-69
2023/03/19 10:51:22;;;;;;;12.88;10.52;;;13.10;99.90;;;;;;5026932;28;20174;-70
2023/03/19 10:53:52;;;;;;;12.57;11.27;;;13.10;99.90;;;;;;5030195;28;20121;-71
2023/03/19 10:56:24;;;;;;;12.50;11.25;;;13.20;99.90;;;;;;5026029;28;20144;-71
2023/03/19 10:59:30;;;;;;;13.45;11.88;;;13.20;99.90;;;;;;5021793;28;20132;-70
2023/03/19 11:02:16;;;;;;;12.43;11.13;;;13.30;99.90;;;;;;5010231;28;20061;-73
2023/03/19 11:04:42;;;;;;;12.70;11.38;;;13.40;99.90;;;;;;5020623;28;20128;-72
2023/03/19 11:07:16;;;;;;;12.55;11.18;;;13.40;99.90;;;;;;5025903;28;20036;-70
2023/03/19 11:09:46;;;;;;;13.52;10.68;;;13.50;99.90;;;;;;5022936;28;20049;-69
2023/03/19 11:12:19;;;;;;;13.18;11.88;;;13.50;99.90;;;;;;5021705;28;20063;-70
2023/03/19 11:14:48;;;;;;;12.88;11.57;;;13.60;99.90;;;;;;5028918;28;20046;-69
2023/03/19 11:17:20;;;;;;;12.70;11.45;;;13.60;99.90;;;;;;5024653;28;20041;-68
2023/03/19 11:19:52;;;;;;;17.25;12.55;;;13.60;99.90;;;;;;5023439;28;20081;-74
2023/03/19 11:22:26;;;;;;;13.05;11.18;;;13.60;99.90;;;;;;5033211;28;20072;-71
2023/03/19 11:25:00;;;;;;;13.80;11.30;;;13.70;99.90;;;;;;5040720;28;20049;-71
2023/03/19 11:27:34;;;;;;;14.00;11.57;;;13.70;99.90;;;;;;5025449;28;20044;-70
2023/03/19 11:30:01;;;;;;;12.60;11.27;;;13.70;99.90;;;;;;5027774;28;20108;-70
2023/03/19 11:32:42;;;;;;;;;;;13.70;99.90;;;;;;5018652;28;20091;-70
2023/03/19 11:35:31;;;;;;;14.73;12.32;;;13.70;99.90;;;;;;5028428;28;20291;-70
2023/03/19 11:38:01;;;;;;;12.93;11.60;;;13.70;99.90;;;;;;5021693;28;20473;-72
2023/03/19 11:40:51;;;;;;;12.40;11.10;;;13.80;99.90;;;;;;5028896;28;20046;-70
2023/03/19 11:43:40;;;;;;;12.23;11.00;;;13.90;99.90;;;;;;5031255;28;20385;-70
2023/03/19 11:46:19;;;;;;;13.70;11.48;;;14.00;99.90;;;;;;5025628;28;20053;-70
2023/03/19 11:49:10;;;;;;;13.05;11.68;;;14.00;99.90;;;;;;5019978;28;20122;-72
2023/03/19 11:51:38;;;;;;;13.57;12.18;;;14.10;99.90;;;;;;5028505;28;20242;-72
2023/03/19 11:54:30;;;;;;;13.57;12.18;;;14.10;99.90;;;;;;5029901;28;20128;-73
2023/03/19 11:57:03;;;;;;;14.32;12.63;;;14.20;99.90;;;;;;5016738;28;20052;-72
2023/03/19 11:59:55;;;;;;;13.73;12.32;;;14.30;99.90;;;;;;5023735;28;20053;-72
2023/03/19 12:02:44;;;;;;;14.15;12.48;;;14.40;99.90;;;;;;5022994;28;20497;-73
2023/03/19 12:05:47;;;;;;;14.07;12.60;;;14.50;99.90;;;;;;5023579;28;20050;-72
2023/03/19 12:08:41;;;;;;;13.05;11.70;;;14.70;99.90;;;;;;5023720;28;20523;-72
2023/03/19 12:11:39;;;;;;;12.75;11.45;;;14.90;99.90;;;;;;5014554;28;20486;-71
2023/03/19 12:14:38;;;;;;;13.25;11.30;;;15.00;99.90;;;;;;4996743;28;20057;-73
2023/03/19 12:17:40;;;;;;;13.40;12.00;;;15.10;99.90;;;;;;5022850;28;20144;-70
2023/03/19 12:20:31;;;;;;;13.40;12.00;;;15.20;99.90;;;;;;5025300;28;20045;-70
2023/03/19 12:23:12;;;;;;;14.13;12.75;;;15.30;99.90;;;;;;5024382;28;20073;-71
2023/03/19 12:25:46;;;;;;;13.90;12.43;;;15.30;99.90;;;;;;5025121;28;20042;-71
2023/03/19 12:28:40;;;;;;;12.75;11.45;;;15.40;99.90;;;;;;5028542;28;20091;-71
2023/03/19 12:31:31;;;;;;;12.80;10.90;;;15.50;99.90;;;;;;5023438;28;20081;-71
2023/03/19 12:34:16;;;;;;;12.10;10.80;;;15.50;99.90;;;;;;5026692;28;20037;-76
2023/03/19 12:37:05;;;;;;;13.55;12.00;;;15.60;99.90;;;;;;5025889;28;20060;-71
2023/03/19 12:39:36;;;;;;;12.98;11.57;;;15.60;99.90;;;;;;5026817;28;20484;-71
2023/03/19 12:42:04;;;;;;;13.43;11.43;;;15.70;99.90;;;;;;5029218;28;20128;-70
2023/03/19 12:44:41;;;;;;;12.50;11.18;;;15.70;99.90;;;;;;5040194;28;20045;-71